sensor_id;sensor_type;location;lat;lon;timestamp;P1;durP1;ratioP1;P2;durP2;ratioP2
8514;SDS011;4295;51.024;7.000;2022-07-18T00:00:57;73.90;;;6.00;;
8514;SDS011;4295;51.024;7.000;2022-07-18T00:03:23;73.13;;;5.57;;
8514;SDS011;4295;51.024;7.000;2022-07-18T00:05:48;75.27;;;5.30;;
8514;SDS011;4295;51.024;7.000;2022-07-18T00:08:14;71.53;;;5.40;;
8514;SDS011;4295;51.024;7.000;2022-07-18T00:10:39;85.17;;;6.83;;
8514;SDS011;4295;51.024;7.000;2022-07-18T00:13:05;73.57;;;5.73;;
8514;SDS011;4295;51.024;7.000;2022-07-18T00:15:30;75.03;;;6.07;;
8514;SDS011;4295;51.024;7.000;2022-07-18T00:17:56;74.90;;;5.90;;
8514;SDS011;4295;51.024;7.000;2022-07-18T00:20:21;72.80;;;5.83;;
8514;SDS011;4295;51.024;7.000;2022-07-18T00:22:47;73.97;;;6.30;;
8514;SDS011;4295;51.024;7.000;2022-07-18T00:25:12;72.67;;;5.70;;
8514;SDS011;4295;51.024;7.000;2022-07-18T00:27:37;75.90;;;5.90;;
8514;SDS011;4295;51.024;7.000;2022-07-18T00:30:03;74.00;;;6.20;;
8514;SDS011;4295;51.024;7.000;2022-07-18T00:32:29;73.07;;;5.80;;
8514;SDS011;4295;51.024;7.000;2022-07-18T00:34:55;78.50;;;6.17;;
8514;SDS011;4295;51.024;7.000;2022-07-18T00:37:20;73.37;;;5.67;;
8514;SDS011;4295;51.024;7.000;2022-07-18T00:39:46;72.67;;;6.00;;
8514;SDS011;4295;51.024;7.000;2022-07-18T00:42:11;73.50;;;5.83;;
8514;SDS011;4295;51.024;7.000;2022-07-18T00:44:37;76.50;;;6.13;;
8514;SDS011;4295;51.024;7.000;2022-07-18T00:47:02;74.77;;;5.73;;
8514;SDS011;4295;51.024;7.000;2022-07-18T00:49:28;72.43;;;5.70;;
8514;SDS011;4295;51.024;7.000;2022-07-18T00:51:54;74.97;;;6.27;;
8514;SDS011;4295;51.024;7.000;2022-07-18T00:54:20;72.60;;;5.80;;
8514;SDS011;4295;51.024;7.000;2022-07-18T00:56:46;74.27;;;5.97;;
8514;SDS011;4295;51.024;7.000;2022-07-18T00:59:13;73.00;;;5.67;;
8514;SDS011;4295;51.024;7.000;2022-07-18T01:01:39;79.97;;;6.27;;
8514;SDS011;4295;51.024;7.000;2022-07-18T01:04:08;76.50;;;6.90;;
8514;SDS011;4295;51.024;7.000;2022-07-18T01:06:38;74.77;;;6.00;;
8514;SDS011;4295;51.024;7.000;2022-07-18T01:09:04;73.23;;;5.50;;
8514;SDS011;4295;51.024;7.000;2022-07-18T01:11:31;73.57;;;5.77;;
8514;SDS011;4295;51.024;7.000;2022-07-18T01:13:57;73.00;;;5.60;;
8514;SDS011;4295;51.024;7.000;2022-07-18T01:16:23;77.40;;;6.07;;
8514;SDS011;4295;51.024;7.000;2022-07-18T01:18:49;73.03;;;5.77;;
8514;SDS011;4295;51.024;7.000;2022-07-18T01:21:15;74.07;;;6.07;;
8514;SDS011;4295;51.024;7.000;2022-07-18T01:23:41;80.53;;;5.97;;
8514;SDS011;4295;51.024;7.000;2022-07-18T01:26:08;73.70;;;6.03;;
8514;SDS011;4295;51.024;7.000;2022-07-18T01:28:34;76.13;;;6.47;;
8514;SDS011;4295;51.024;7.000;2022-07-18T01:31:00;74.03;;;6.40;;
8514;SDS011;4295;51.024;7.000;2022-07-18T01:33:25;81.90;;;6.60;;
8514;SDS011;4295;51.024;7.000;2022-07-18T01:35:50;73.97;;;6.97;;
8514;SDS011;4295;51.024;7.000;2022-07-18T01:38:16;73.77;;;6.70;;
8514;SDS011;4295;51.024;7.000;2022-07-18T01:40:43;74.37;;;6.20;;
8514;SDS011;4295;51.024;7.000;2022-07-18T01:43:09;73.37;;;6.17;;
8514;SDS011;4295;51.024;7.000;2022-07-18T01:45:34;77.33;;;6.33;;
8514;SDS011;4295;51.024;7.000;2022-07-18T01:48:00;76.93;;;6.77;;
8514;SDS011;4295;51.024;7.000;2022-07-18T01:50:25;74.87;;;6.50;;
8514;SDS011;4295;51.024;7.000;2022-07-18T01:52:51;76.40;;;6.80;;
8514;SDS011;4295;51.024;7.000;2022-07-18T01:55:16;76.17;;;6.53;;
8514;SDS011;4295;51.024;7.000;2022-07-18T01:57:42;77.90;;;6.87;;
8514;SDS011;4295;51.024;7.000;2022-07-18T02:00:09;73.40;;;5.80;;
8514;SDS011;4295;51.024;7.000;2022-07-18T02:02:36;74.10;;;5.80;;
8514;SDS011;4295;51.024;7.000;2022-07-18T02:05:02;74.90;;;6.50;;
8514;SDS011;4295;51.024;7.000;2022-07-18T02:07:32;74.20;;;5.70;;
8514;SDS011;4295;51.024;7.000;2022-07-18T02:10:00;74.73;;;6.27;;
8514;SDS011;4295;51.024;7.000;2022-07-18T02:12:25;76.23;;;6.20;;
8514;SDS011;4295;51.024;7.000;2022-07-18T02:14:51;75.67;;;6.93;;
8514;SDS011;4295;51.024;7.000;2022-07-18T02:17:18;75.90;;;6.43;;
8514;SDS011;4295;51.024;7.000;2022-07-18T02:19:44;75.10;;;6.97;;
8514;SDS011;4295;51.024;7.000;2022-07-18T02:22:10;75.07;;;6.00;;
8514;SDS011;4295;51.024;7.000;2022-07-18T02:24:35;74.40;;;6.10;;
8514;SDS011;4295;51.024;7.000;2022-07-18T02:27:01;75.73;;;6.60;;
8514;SDS011;4295;51.024;7.000;2022-07-18T02:29:26;76.47;;;6.40;;
8514;SDS011;4295;51.024;7.000;2022-07-18T02:31:52;83.93;;;6.53;;
8514;SDS011;4295;51.024;7.000;2022-07-18T02:34:17;75.20;;;6.13;;
8514;SDS011;4295;51.024;7.000;2022-07-18T02:36:42;81.07;;;7.10;;
8514;SDS011;4295;51.024;7.000;2022-07-18T02:39:08;76.13;;;6.63;;
8514;SDS011;4295;51.024;7.000;2022-07-18T02:41:34;75.20;;;6.50;;
8514;SDS011;4295;51.024;7.000;2022-07-18T02:44:00;75.00;;;6.57;;
8514;SDS011;4295;51.024;7.000;2022-07-18T02:46:25;75.50;;;6.50;;
8514;SDS011;4295;51.024;7.000;2022-07-18T02:48:51;79.03;;;6.50;;
8514;SDS011;4295;51.024;7.000;2022-07-18T02:51:17;76.13;;;6.53;;
8514;SDS011;4295;51.024;7.000;2022-07-18T02:53:43;85.40;;;7.00;;
8514;SDS011;4295;51.024;7.000;2022-07-18T02:56:09;77.30;;;6.80;;
8514;SDS011;4295;51.024;7.000;2022-07-18T02:58:34;74.90;;;7.53;;
8514;SDS011;4295;51.024;7.000;2022-07-18T03:00:59;78.03;;;6.90;;
8514;SDS011;4295;51.024;7.000;2022-07-18T03:03:25;76.80;;;6.93;;
8514;SDS011;4295;51.024;7.000;2022-07-18T03:05:51;74.37;;;6.77;;
8514;SDS011;4295;51.024;7.000;2022-07-18T03:08:16;75.07;;;6.47;;
8514;SDS011;4295;51.024;7.000;2022-07-18T03:10:41;74.50;;;6.60;;
8514;SDS011;4295;51.024;7.000;2022-07-18T03:13:07;74.77;;;7.10;;
8514;SDS011;4295;51.024;7.000;2022-07-18T03:15:32;76.40;;;7.47;;
8514;SDS011;4295;51.024;7.000;2022-07-18T03:17:58;76.63;;;7.13;;
8514;SDS011;4295;51.024;7.000;2022-07-18T03:20:23;74.33;;;6.63;;
8514;SDS011;4295;51.024;7.000;2022-07-18T03:22:49;76.33;;;8.10;;
8514;SDS011;4295;51.024;7.000;2022-07-18T03:25:14;76.60;;;7.70;;
8514;SDS011;4295;51.024;7.000;2022-07-18T03:27:39;76.07;;;6.70;;
8514;SDS011;4295;51.024;7.000;2022-07-18T03:30:05;81.60;;;6.93;;
8514;SDS011;4295;51.024;7.000;2022-07-18T03:32:31;78.00;;;7.20;;
8514;SDS011;4295;51.024;7.000;2022-07-18T03:34:56;77.07;;;7.70;;
8514;SDS011;4295;51.024;7.000;2022-07-18T03:37:22;81.00;;;7.10;;
8514;SDS011;4295;51.024;7.000;2022-07-18T03:39:47;77.07;;;7.17;;
8514;SDS011;4295;51.024;7.000;2022-07-18T03:42:12;75.87;;;7.07;;
8514;SDS011;4295;51.024;7.000;2022-07-18T03:44:38;76.63;;;7.10;;
8514;SDS011;4295;51.024;7.000;2022-07-18T03:47:03;76.00;;;7.30;;
8514;SDS011;4295;51.024;7.000;2022-07-18T03:49:29;79.47;;;7.23;;
8514;SDS011;4295;51.024;7.000;2022-07-18T03:51:54;81.57;;;6.70;;
8514;SDS011;4295;51.024;7.000;2022-07-18T03:54:21;78.83;;;6.90;;
8514;SDS011;4295;51.024;7.000;2022-07-18T03:56:47;77.47;;;7.13;;
8514;SDS011;4295;51.024;7.000;2022-07-18T03:59:12;78.03;;;7.87;;
8514;SDS011;4295;51.024;7.000;2022-07-18T04:01:37;75.10;;;7.20;;
8514;SDS011;4295;51.024;7.000;2022-07-18T04:04:03;74.97;;;7.03;;
8514;SDS011;4295;51.024;7.000;2022-07-18T04:06:29;75.67;;;7.13;;
8514;SDS011;4295;51.024;7.000;2022-07-18T04:08:54;75.60;;;7.67;;
8514;SDS011;4295;51.024;7.000;2022-07-18T04:11:20;75.70;;;6.67;;
8514;SDS011;4295;51.024;7.000;2022-07-18T04:13:48;76.97;;;7.40;;
8514;SDS011;4295;51.024;7.000;2022-07-18T04:16:18;77.67;;;7.40;;
8514;SDS011;4295;51.024;7.000;2022-07-18T04:18:43;74.87;;;7.67;;
8514;SDS011;4295;51.024;7.000;2022-07-18T04:21:09;76.07;;;7.67;;
8514;SDS011;4295;51.024;7.000;2022-07-18T04:23:34;74.57;;;7.37;;
8514;SDS011;4295;51.024;7.000;2022-07-18T04:26:00;78.30;;;7.30;;
8514;SDS011;4295;51.024;7.000;2022-07-18T04:28:26;77.60;;;7.27;;
8514;SDS011;4295;51.024;7.000;2022-07-18T04:30:52;75.80;;;6.87;;
8514;SDS011;4295;51.024;7.000;2022-07-18T04:33:17;74.97;;;6.83;;
8514;SDS011;4295;51.024;7.000;2022-07-18T04:35:42;75.33;;;7.40;;
8514;SDS011;4295;51.024;7.000;2022-07-18T04:38:09;76.27;;;7.83;;
8514;SDS011;4295;51.024;7.000;2022-07-18T04:40:35;74.90;;;7.07;;
8514;SDS011;4295;51.024;7.000;2022-07-18T04:43:02;75.60;;;6.83;;
8514;SDS011;4295;51.024;7.000;2022-07-18T04:45:28;76.93;;;7.03;;
8514;SDS011;4295;51.024;7.000;2022-07-18T04:47:54;74.50;;;7.00;;
8514;SDS011;4295;51.024;7.000;2022-07-18T04:50:22;73.80;;;6.10;;
8514;SDS011;4295;51.024;7.000;2022-07-18T04:52:48;75.27;;;6.70;;
8514;SDS011;4295;51.024;7.000;2022-07-18T04:55:15;74.20;;;6.73;;
8514;SDS011;4295;51.024;7.000;2022-07-18T04:57:42;75.07;;;6.47;;
8514;SDS011;4295;51.024;7.000;2022-07-18T05:00:12;76.17;;;6.47;;
8514;SDS011;4295;51.024;7.000;2022-07-18T05:02:41;74.10;;;7.00;;
8514;SDS011;4295;51.024;7.000;2022-07-18T05:05:07;73.97;;;7.10;;
8514;SDS011;4295;51.024;7.000;2022-07-18T05:07:35;79.30;;;6.40;;
8514;SDS011;4295;51.024;7.000;2022-07-18T05:10:00;76.83;;;6.50;;
8514;SDS011;4295;51.024;7.000;2022-07-18T05:12:29;79.27;;;6.93;;
8514;SDS011;4295;51.024;7.000;2022-07-18T05:14:54;74.20;;;6.20;;
8514;SDS011;4295;51.024;7.000;2022-07-18T05:17:19;75.83;;;6.40;;
8514;SDS011;4295;51.024;7.000;2022-07-18T05:19:45;77.33;;;6.53;;
8514;SDS011;4295;51.024;7.000;2022-07-18T05:22:10;72.97;;;5.87;;
8514;SDS011;4295;51.024;7.000;2022-07-18T05:24:35;74.00;;;5.70;;
8514;SDS011;4295;51.024;7.000;2022-07-18T05:27:01;74.50;;;5.80;;
8514;SDS011;4295;51.024;7.000;2022-07-18T05:29:26;73.17;;;5.60;;
8514;SDS011;4295;51.024;7.000;2022-07-18T05:31:52;73.83;;;5.70;;
8514;SDS011;4295;51.024;7.000;2022-07-18T05:34:17;73.47;;;5.37;;
8514;SDS011;4295;51.024;7.000;2022-07-18T05:36:43;73.90;;;5.40;;
8514;SDS011;4295;51.024;7.000;2022-07-18T05:39:08;72.73;;;5.30;;
8514;SDS011;4295;51.024;7.000;2022-07-18T05:41:34;74.00;;;5.77;;
8514;SDS011;4295;51.024;7.000;2022-07-18T05:44:00;74.47;;;4.60;;
8514;SDS011;4295;51.024;7.000;2022-07-18T05:46:25;71.37;;;4.40;;
8514;SDS011;4295;51.024;7.000;2022-07-18T05:48:50;71.20;;;3.97;;
8514;SDS011;4295;51.024;7.000;2022-07-18T05:51:16;70.77;;;3.93;;
8514;SDS011;4295;51.024;7.000;2022-07-18T05:53:43;68.33;;;3.80;;
8514;SDS011;4295;51.024;7.000;2022-07-18T05:56:09;69.10;;;3.77;;
8514;SDS011;4295;51.024;7.000;2022-07-18T05:58:34;68.97;;;3.80;;
8514;SDS011;4295;51.024;7.000;2022-07-18T06:01:00;65.93;;;3.60;;
8514;SDS011;4295;51.024;7.000;2022-07-18T06:03:25;66.07;;;3.50;;
8514;SDS011;4295;51.024;7.000;2022-07-18T06:05:51;66.53;;;3.80;;
8514;SDS011;4295;51.024;7.000;2022-07-18T06:08:16;65.73;;;4.20;;
8514;SDS011;4295;51.024;7.000;2022-07-18T06:10:42;67.47;;;3.37;;
8514;SDS011;4295;51.024;7.000;2022-07-18T06:13:07;67.47;;;4.20;;
8514;SDS011;4295;51.024;7.000;2022-07-18T06:15:33;64.20;;;3.53;;
8514;SDS011;4295;51.024;7.000;2022-07-18T06:17:58;66.43;;;3.50;;
8514;SDS011;4295;51.024;7.000;2022-07-18T06:20:24;64.60;;;3.50;;
8514;SDS011;4295;51.024;7.000;2022-07-18T06:22:49;65.87;;;3.53;;
8514;SDS011;4295;51.024;7.000;2022-07-18T06:25:15;64.70;;;3.40;;
8514;SDS011;4295;51.024;7.000;2022-07-18T06:27:40;65.30;;;3.97;;
8514;SDS011;4295;51.024;7.000;2022-07-18T06:30:06;69.23;;;3.50;;
8514;SDS011;4295;51.024;7.000;2022-07-18T06:32:34;63.33;;;3.67;;
8514;SDS011;4295;51.024;7.000;2022-07-18T06:34:59;63.07;;;3.37;;
8514;SDS011;4295;51.024;7.000;2022-07-18T06:37:25;62.80;;;3.30;;
8514;SDS011;4295;51.024;7.000;2022-07-18T06:39:50;62.57;;;3.60;;
8514;SDS011;4295;51.024;7.000;2022-07-18T06:42:16;64.50;;;3.80;;
8514;SDS011;4295;51.024;7.000;2022-07-18T06:44:41;64.37;;;3.73;;
8514;SDS011;4295;51.024;7.000;2022-07-18T06:47:06;66.30;;;3.70;;
8514;SDS011;4295;51.024;7.000;2022-07-18T06:49:32;64.90;;;4.10;;
8514;SDS011;4295;51.024;7.000;2022-07-18T06:51:57;62.47;;;3.23;;
8514;SDS011;4295;51.024;7.000;2022-07-18T06:54:23;63.50;;;3.60;;
8514;SDS011;4295;51.024;7.000;2022-07-18T06:56:52;62.97;;;3.00;;
8514;SDS011;4295;51.024;7.000;2022-07-18T06:59:21;68.33;;;3.30;;
8514;SDS011;4295;51.024;7.000;2022-07-18T07:01:47;63.27;;;3.80;;
8514;SDS011;4295;51.024;7.000;2022-07-18T07:04:13;64.10;;;3.73;;
8514;SDS011;4295;51.024;7.000;2022-07-18T07:06:38;65.93;;;3.70;;
8514;SDS011;4295;51.024;7.000;2022-07-18T07:09:04;64.67;;;4.03;;
8514;SDS011;4295;51.024;7.000;2022-07-18T07:11:30;62.60;;;3.50;;
8514;SDS011;4295;51.024;7.000;2022-07-18T07:13:56;64.50;;;4.00;;
8514;SDS011;4295;51.024;7.000;2022-07-18T07:16:21;63.07;;;3.60;;
8514;SDS011;4295;51.024;7.000;2022-07-18T07:18:47;63.27;;;3.90;;
8514;SDS011;4295;51.024;7.000;2022-07-18T07:21:12;62.80;;;3.50;;
8514;SDS011;4295;51.024;7.000;2022-07-18T07:23:37;65.67;;;3.90;;
8514;SDS011;4295;51.024;7.000;2022-07-18T07:26:03;62.77;;;3.60;;
8514;SDS011;4295;51.024;7.000;2022-07-18T07:28:29;64.50;;;3.50;;
8514;SDS011;4295;51.024;7.000;2022-07-18T07:30:55;64.10;;;3.90;;
8514;SDS011;4295;51.024;7.000;2022-07-18T07:33:20;62.47;;;3.93;;
8514;SDS011;4295;51.024;7.000;2022-07-18T07:35:46;64.00;;;3.93;;
8514;SDS011;4295;51.024;7.000;2022-07-18T07:38:11;66.90;;;3.70;;
8514;SDS011;4295;51.024;7.000;2022-07-18T07:40:43;62.60;;;3.40;;
8514;SDS011;4295;51.024;7.000;2022-07-18T07:43:10;75.23;;;3.83;;
8514;SDS011;4295;51.024;7.000;2022-07-18T07:45:37;65.27;;;3.57;;
8514;SDS011;4295;51.024;7.000;2022-07-18T07:48:03;63.23;;;3.83;;
8514;SDS011;4295;51.024;7.000;2022-07-18T07:50:29;62.37;;;3.63;;
8514;SDS011;4295;51.024;7.000;2022-07-18T07:52:55;62.20;;;3.80;;
8514;SDS011;4295;51.024;7.000;2022-07-18T07:55:22;63.70;;;3.53;;
8514;SDS011;4295;51.024;7.000;2022-07-18T07:57:47;65.57;;;4.67;;
8514;SDS011;4295;51.024;7.000;2022-07-18T08:00:13;62.83;;;3.73;;
8514;SDS011;4295;51.024;7.000;2022-07-18T08:02:57;63.53;;;3.60;;
8514;SDS011;4295;51.024;7.000;2022-07-18T08:05:28;62.93;;;3.70;;
8514;SDS011;4295;51.024;7.000;2022-07-18T08:07:55;61.40;;;3.40;;
8514;SDS011;4295;51.024;7.000;2022-07-18T08:10:21;62.33;;;3.87;;
8514;SDS011;4295;51.024;7.000;2022-07-18T08:12:46;62.37;;;3.73;;
8514;SDS011;4295;51.024;7.000;2022-07-18T08:15:12;62.07;;;3.53;;
8514;SDS011;4295;51.024;7.000;2022-07-18T08:17:38;65.50;;;3.60;;
8514;SDS011;4295;51.024;7.000;2022-07-18T08:20:04;70.07;;;4.10;;
8514;SDS011;4295;51.024;7.000;2022-07-18T08:22:29;64.67;;;4.00;;
8514;SDS011;4295;51.024;7.000;2022-07-18T08:24:55;65.23;;;3.70;;
8514;SDS011;4295;51.024;7.000;2022-07-18T08:27:20;62.90;;;3.70;;
8514;SDS011;4295;51.024;7.000;2022-07-18T08:29:46;63.10;;;3.60;;
8514;SDS011;4295;51.024;7.000;2022-07-18T08:32:11;62.10;;;3.20;;
8514;SDS011;4295;51.024;7.000;2022-07-18T08:34:38;68.90;;;4.20;;
8514;SDS011;4295;51.024;7.000;2022-07-18T08:37:03;64.87;;;3.60;;
8514;SDS011;4295;51.024;7.000;2022-07-18T08:39:29;63.47;;;3.80;;
8514;SDS011;4295;51.024;7.000;2022-07-18T08:41:54;63.63;;;3.63;;
8514;SDS011;4295;51.024;7.000;2022-07-18T08:44:21;61.83;;;3.60;;
8514;SDS011;4295;51.024;7.000;2022-07-18T08:46:50;61.90;;;3.70;;
8514;SDS011;4295;51.024;7.000;2022-07-18T08:49:19;64.20;;;3.60;;
8514;SDS011;4295;51.024;7.000;2022-07-18T08:51:47;61.27;;;3.20;;
8514;SDS011;4295;51.024;7.000;2022-07-18T08:54:13;60.05;;;3.55;;
8514;SDS011;4295;51.024;7.000;2022-07-18T08:56:38;64.05;;;4.03;;
8514;SDS011;4295;51.024;7.000;2022-07-18T08:59:04;62.17;;;3.87;;
8514;SDS011;4295;51.024;7.000;2022-07-18T09:01:30;62.90;;;4.20;;
8514;SDS011;4295;51.024;7.000;2022-07-18T09:03:56;62.40;;;4.40;;
8514;SDS011;4295;51.024;7.000;2022-07-18T09:06:42;77.97;;;13.70;;
8514;SDS011;4295;51.024;7.000;2022-07-18T09:09:12;71.57;;;10.10;;
8514;SDS011;4295;51.024;7.000;2022-07-18T09:14:44;61.22;;;4.00;;
8514;SDS011;4295;51.024;7.000;2022-07-18T09:19:36;60.42;;;3.60;;
8514;SDS011;4295;51.024;7.000;2022-07-18T09:27:25;61.83;;;3.60;;
8514;SDS011;4295;51.024;7.000;2022-07-18T09:30:08;61.97;;;3.50;;
8514;SDS011;4295;51.024;7.000;2022-07-18T09:32:35;67.97;;;3.90;;
8514;SDS011;4295;51.024;7.000;2022-07-18T09:35:05;60.17;;;4.13;;
8514;SDS011;4295;51.024;7.000;2022-07-18T09:37:35;58.65;;;3.50;;
8514;SDS011;4295;51.024;7.000;2022-07-18T09:40:21;62.25;;;5.25;;
8514;SDS011;4295;51.024;7.000;2022-07-18T09:42:55;61.70;;;3.83;;
8514;SDS011;4295;51.024;7.000;2022-07-18T09:45:42;60.67;;;3.63;;
8514;SDS011;4295;51.024;7.000;2022-07-18T09:48:09;59.78;;;3.65;;
8514;SDS011;4295;51.024;7.000;2022-07-18T09:50:38;63.20;;;3.38;;
8514;SDS011;4295;51.024;7.000;2022-07-18T09:53:15;60.35;;;3.70;;
8514;SDS011;4295;51.024;7.000;2022-07-18T09:55:48;62.53;;;3.53;;
8514;SDS011;4295;51.024;7.000;2022-07-18T09:58:21;64.57;;;3.80;;
8514;SDS011;4295;51.024;7.000;2022-07-18T10:00:51;60.53;;;3.60;;
8514;SDS011;4295;51.024;7.000;2022-07-18T10:03:18;60.28;;;3.55;;
8514;SDS011;4295;51.024;7.000;2022-07-18T10:05:45;59.65;;;3.40;;
8514;SDS011;4295;51.024;7.000;2022-07-18T10:08:14;59.60;;;4.20;;
8514;SDS011;4295;51.024;7.000;2022-07-18T10:10:42;61.88;;;3.88;;
8514;SDS011;4295;51.024;7.000;2022-07-18T10:13:09;57.70;;;3.63;;
8514;SDS011;4295;51.024;7.000;2022-07-18T10:15:36;60.33;;;3.38;;
8514;SDS011;4295;51.024;7.000;2022-07-18T10:18:04;60.47;;;3.50;;
8514;SDS011;4295;51.024;7.000;2022-07-18T10:20:33;58.38;;;3.65;;
8514;SDS011;4295;51.024;7.000;2022-07-18T10:23:01;59.78;;;3.92;;
8514;SDS011;4295;51.024;7.000;2022-07-18T10:25:32;58.33;;;3.40;;
8514;SDS011;4295;51.024;7.000;2022-07-18T10:28:31;58.78;;;3.70;;
8514;SDS011;4295;51.024;7.000;2022-07-18T10:30:50;58.35;;;3.60;;
8514;SDS011;4295;51.024;7.000;2022-07-18T10:36:17;58.53;;;3.92;;
8514;SDS011;4295;51.024;7.000;2022-07-18T10:39:03;57.97;;;3.65;;
8514;SDS011;4295;51.024;7.000;2022-07-18T10:41:32;57.40;;;3.50;;
8514;SDS011;4295;51.024;7.000;2022-07-18T10:57:38;58.47;;;3.85;;
8514;SDS011;4295;51.024;7.000;2022-07-18T11:15:54;58.10;;;4.00;;
8514;SDS011;4295;51.024;7.000;2022-07-18T11:27:51;62.38;;;3.97;;
8514;SDS011;4295;51.024;7.000;2022-07-18T11:30:17;59.05;;;3.72;;
8514;SDS011;4295;51.024;7.000;2022-07-18T11:34:58;59.03;;;3.95;;
8514;SDS011;4295;51.024;7.000;2022-07-18T11:37:25;65.18;;;4.90;;
8514;SDS011;4295;51.024;7.000;2022-07-18T11:39:50;59.28;;;4.10;;
8514;SDS011;4295;51.024;7.000;2022-07-18T11:42:16;61.35;;;4.38;;
8514;SDS011;4295;51.024;7.000;2022-07-18T11:44:43;59.40;;;4.38;;
8514;SDS011;4295;51.024;7.000;2022-07-18T11:47:09;58.80;;;4.00;;
8514;SDS011;4295;51.024;7.000;2022-07-18T11:49:37;59.08;;;4.18;;
8514;SDS011;4295;51.024;7.000;2022-07-18T11:52:05;60.75;;;3.95;;
8514;SDS011;4295;51.024;7.000;2022-07-18T11:54:31;61.05;;;3.97;;
8514;SDS011;4295;51.024;7.000;2022-07-18T11:56:58;58.72;;;3.95;;
8514;SDS011;4295;51.024;7.000;2022-07-18T11:59:34;58.20;;;3.90;;
8514;SDS011;4295;51.024;7.000;2022-07-18T12:02:02;63.20;;;4.18;;
8514;SDS011;4295;51.024;7.000;2022-07-18T12:04:28;61.22;;;4.10;;
8514;SDS011;4295;51.024;7.000;2022-07-18T12:07:13;57.67;;;3.70;;
8514;SDS011;4295;51.024;7.000;2022-07-18T12:09:51;60.38;;;4.10;;
8514;SDS011;4295;51.024;7.000;2022-07-18T12:12:18;58.75;;;3.95;;
8514;SDS011;4295;51.024;7.000;2022-07-18T12:14:58;58.17;;;3.92;;
8514;SDS011;4295;51.024;7.000;2022-07-18T12:17:27;58.78;;;3.80;;
8514;SDS011;4295;51.024;7.000;2022-07-18T12:20:07;58.83;;;3.90;;
8514;SDS011;4295;51.024;7.000;2022-07-18T12:25:42;59.15;;;3.80;;
8514;SDS011;4295;51.024;7.000;2022-07-18T12:28:11;56.45;;;3.63;;
8514;SDS011;4295;51.024;7.000;2022-07-18T12:30:38;58.83;;;3.90;;
8514;SDS011;4295;51.024;7.000;2022-07-18T12:33:06;57.78;;;3.80;;
8514;SDS011;4295;51.024;7.000;2022-07-18T12:35:34;58.00;;;3.88;;
8514;SDS011;4295;51.024;7.000;2022-07-18T12:38:08;61.75;;;3.90;;
8514;SDS011;4295;51.024;7.000;2022-07-18T12:43:11;57.40;;;3.80;;
8514;SDS011;4295;51.024;7.000;2022-07-18T12:45:42;61.28;;;4.28;;
8514;SDS011;4295;51.024;7.000;2022-07-18T12:48:09;66.60;;;4.07;;
8514;SDS011;4295;51.024;7.000;2022-07-18T12:50:36;59.22;;;3.75;;
8514;SDS011;4295;51.024;7.000;2022-07-18T12:53:03;57.83;;;3.92;;
8514;SDS011;4295;51.024;7.000;2022-07-18T12:55:29;59.80;;;3.75;;
8514;SDS011;4295;51.024;7.000;2022-07-18T12:57:54;57.38;;;3.65;;
8514;SDS011;4295;51.024;7.000;2022-07-18T13:00:20;59.28;;;3.95;;
8514;SDS011;4295;51.024;7.000;2022-07-18T13:02:45;57.70;;;3.95;;
8514;SDS011;4295;51.024;7.000;2022-07-18T13:05:11;56.92;;;3.97;;
8514;SDS011;4295;51.024;7.000;2022-07-18T13:07:37;55.97;;;3.72;;
8514;SDS011;4295;51.024;7.000;2022-07-18T13:10:03;56.55;;;3.80;;
8514;SDS011;4295;51.024;7.000;2022-07-18T13:12:29;55.83;;;3.60;;
8514;SDS011;4295;51.024;7.000;2022-07-18T13:14:54;57.20;;;4.30;;
8514;SDS011;4295;51.024;7.000;2022-07-18T13:17:20;59.33;;;4.07;;
8514;SDS011;4295;51.024;7.000;2022-07-18T13:19:45;57.55;;;3.85;;
8514;SDS011;4295;51.024;7.000;2022-07-18T13:22:11;57.88;;;3.75;;
8514;SDS011;4295;51.024;7.000;2022-07-18T13:24:37;57.35;;;3.80;;
8514;SDS011;4295;51.024;7.000;2022-07-18T13:27:03;58.65;;;4.20;;
8514;SDS011;4295;51.024;7.000;2022-07-18T13:29:29;57.97;;;4.75;;
8514;SDS011;4295;51.024;7.000;2022-07-18T13:31:54;59.17;;;4.15;;
8514;SDS011;4295;51.024;7.000;2022-07-18T13:34:20;57.53;;;4.15;;
8514;SDS011;4295;51.024;7.000;2022-07-18T13:36:47;59.47;;;4.45;;
8514;SDS011;4295;51.024;7.000;2022-07-18T13:39:13;58.22;;;4.30;;
8514;SDS011;4295;51.024;7.000;2022-07-18T13:41:39;56.58;;;4.15;;
8514;SDS011;4295;51.024;7.000;2022-07-18T13:44:04;61.83;;;4.05;;
8514;SDS011;4295;51.024;7.000;2022-07-18T13:46:30;58.05;;;3.90;;
8514;SDS011;4295;51.024;7.000;2022-07-18T13:48:55;59.17;;;3.90;;
8514;SDS011;4295;51.024;7.000;2022-07-18T13:51:21;57.97;;;3.70;;
8514;SDS011;4295;51.024;7.000;2022-07-18T13:53:46;58.25;;;4.25;;
8514;SDS011;4295;51.024;7.000;2022-07-18T13:56:11;60.03;;;4.25;;
8514;SDS011;4295;51.024;7.000;2022-07-18T13:58:37;57.78;;;4.60;;
8514;SDS011;4295;51.024;7.000;2022-07-18T14:01:02;61.78;;;4.15;;
8514;SDS011;4295;51.024;7.000;2022-07-18T14:03:28;64.57;;;4.65;;
8514;SDS011;4295;51.024;7.000;2022-07-18T14:05:53;59.22;;;4.20;;
8514;SDS011;4295;51.024;7.000;2022-07-18T14:08:19;57.83;;;4.20;;
8514;SDS011;4295;51.024;7.000;2022-07-18T14:10:44;57.80;;;3.90;;
8514;SDS011;4295;51.024;7.000;2022-07-18T14:13:09;61.20;;;4.38;;
8514;SDS011;4295;51.024;7.000;2022-07-18T14:15:35;60.20;;;4.80;;
8514;SDS011;4295;51.024;7.000;2022-07-18T14:18:00;58.38;;;4.40;;
8514;SDS011;4295;51.024;7.000;2022-07-18T14:20:26;58.50;;;4.40;;
8514;SDS011;4295;51.024;7.000;2022-07-18T14:22:52;60.25;;;4.50;;
8514;SDS011;4295;51.024;7.000;2022-07-18T14:25:17;60.50;;;4.13;;
8514;SDS011;4295;51.024;7.000;2022-07-18T14:27:43;60.03;;;4.53;;
8514;SDS011;4295;51.024;7.000;2022-07-18T14:30:10;58.05;;;4.28;;
8514;SDS011;4295;51.024;7.000;2022-07-18T14:32:39;59.47;;;4.22;;
8514;SDS011;4295;51.024;7.000;2022-07-18T14:35:06;62.92;;;4.63;;
8514;SDS011;4295;51.024;7.000;2022-07-18T14:37:32;59.55;;;4.20;;
8514;SDS011;4295;51.024;7.000;2022-07-18T14:39:58;58.92;;;4.22;;
8514;SDS011;4295;51.024;7.000;2022-07-18T14:42:24;61.35;;;4.53;;
8514;SDS011;4295;51.024;7.000;2022-07-18T14:44:50;63.60;;;4.60;;
8514;SDS011;4295;51.024;7.000;2022-07-18T14:47:16;58.28;;;4.70;;
8514;SDS011;4295;51.024;7.000;2022-07-18T14:49:41;63.08;;;4.65;;
8514;SDS011;4295;51.024;7.000;2022-07-18T14:52:06;57.70;;;4.28;;
8514;SDS011;4295;51.024;7.000;2022-07-18T14:54:32;56.90;;;4.30;;
8514;SDS011;4295;51.024;7.000;2022-07-18T14:56:57;59.85;;;4.47;;
8514;SDS011;4295;51.024;7.000;2022-07-18T14:59:23;59.92;;;4.40;;
8514;SDS011;4295;51.024;7.000;2022-07-18T15:01:48;62.72;;;4.30;;
8514;SDS011;4295;51.024;7.000;2022-07-18T15:04:14;58.45;;;4.60;;
8514;SDS011;4295;51.024;7.000;2022-07-18T15:06:40;59.78;;;4.63;;
8514;SDS011;4295;51.024;7.000;2022-07-18T15:09:06;58.72;;;4.45;;
8514;SDS011;4295;51.024;7.000;2022-07-18T15:11:34;57.30;;;4.43;;
8514;SDS011;4295;51.024;7.000;2022-07-18T15:14:00;60.17;;;4.65;;
8514;SDS011;4295;51.024;7.000;2022-07-18T15:16:26;61.10;;;4.18;;
8514;SDS011;4295;51.024;7.000;2022-07-18T15:18:51;61.53;;;3.90;;
8514;SDS011;4295;51.024;7.000;2022-07-18T15:21:16;57.90;;;3.70;;
8514;SDS011;4295;51.024;7.000;2022-07-18T15:23:42;59.08;;;3.72;;
8514;SDS011;4295;51.024;7.000;2022-07-18T15:26:07;57.35;;;4.20;;
8514;SDS011;4295;51.024;7.000;2022-07-18T15:28:33;61.38;;;4.40;;
8514;SDS011;4295;51.024;7.000;2022-07-18T15:30:58;58.42;;;3.85;;
8514;SDS011;4295;51.024;7.000;2022-07-18T15:33:24;63.90;;;3.63;;
8514;SDS011;4295;51.024;7.000;2022-07-18T15:35:49;57.70;;;3.60;;
8514;SDS011;4295;51.024;7.000;2022-07-18T15:38:15;60.60;;;3.50;;
8514;SDS011;4295;51.024;7.000;2022-07-18T15:40:40;59.70;;;3.90;;
8514;SDS011;4295;51.024;7.000;2022-07-18T15:43:06;58.28;;;4.10;;
8514;SDS011;4295;51.024;7.000;2022-07-18T15:45:31;58.13;;;4.38;;
8514;SDS011;4295;51.024;7.000;2022-07-18T15:47:57;59.53;;;4.20;;
8514;SDS011;4295;51.024;7.000;2022-07-18T15:50:22;60.38;;;3.70;;
8514;SDS011;4295;51.024;7.000;2022-07-18T15:52:48;56.85;;;3.92;;
8514;SDS011;4295;51.024;7.000;2022-07-18T15:55:14;63.72;;;4.47;;
8514;SDS011;4295;51.024;7.000;2022-07-18T15:57:39;57.35;;;4.38;;